Time;durP1;ratioP1;P1;durP2;ratioP2;P2;SDS_P1;SDS_P2;PMS_P1;PMS_P2;Temp;Humidity;BMP_temperature;BMP_pressure;BME280_temperature;BME280_humidity;BME280_pressure;Samples;Min_cycle;Max_cycle;Signal;HPM_P1;HPM_P2
2022/04/16 00:01:49;;;;;;;1.52;1.42;;;16.20;56.60;;;;;;5035589;28;20029;-67
2022/04/16 00:04:15;;;;;;;1.60;1.50;;;16.20;56.60;;;;;;5036416;28;20034;-67
2022/04/16 00:06:41;;;;;;;1.50;1.40;;;16.20;56.70;;;;;;5036489;28;20037;-67
2022/04/16 00:09:06;;;;;;;1.48;1.38;;;16.20;56.70;;;;;;5036633;28;20025;-67
2022/04/16 00:11:32;;;;;;;1.50;1.40;;;16.10;56.70;;;;;;5034773;28;20026;-67
2022/04/16 00:13:58;;;;;;;1.60;1.50;;;16.10;56.70;;;;;;5036262;28;20036;-67
2022/04/16 00:16:24;;;;;;;1.80;1.60;;;16.20;56.80;;;;;;5036722;28;20483;-66
2022/04/16 00:18:50;;;;;;;1.60;1.50;;;16.10;56.80;;;;;;5035317;28;20060;-66
2022/04/16 00:21:17;;;;;;;1.60;1.50;;;16.10;56.80;;;;;;5036477;28;20022;-66
2022/04/16 00:23:43;;;;;;;1.60;1.50;;;16.10;56.80;;;;;;5036321;28;20387;-67
2022/04/16 00:26:11;;;;;;;1.40;1.30;;;16.10;56.80;;;;;;5035984;28;20026;-66
2022/04/16 00:28:38;;;;;;;1.45;1.35;;;16.10;56.90;;;;;;5036330;28;20033;-67
2022/04/16 00:31:04;;;;;;;1.60;1.50;;;16.00;56.90;;;;;;5034706;28;20030;-67
2022/04/16 00:33:31;;;;;;;1.70;1.60;;;16.00;56.90;;;;;;5035924;28;20482;-66
2022/04/16 00:35:56;;;;;;;1.60;1.50;;;16.00;56.90;;;;;;5036107;28;20025;-66
2022/04/16 00:38:22;;;;;;;1.42;1.30;;;16.00;57.00;;;;;;5036022;28;20372;-67
2022/04/16 00:40:48;;;;;;;1.58;1.48;;;16.00;56.90;;;;;;5033900;28;20037;-67
2022/04/16 00:43:21;;;;;;;1.60;1.50;;;16.00;57.00;;;;;;5035366;28;20463;-67
2022/04/16 00:45:47;;;;;;;1.40;1.30;;;16.00;57.00;;;;;;5034395;28;20021;-67
2022/04/16 00:48:13;;;;;;;1.67;1.58;;;16.00;57.10;;;;;;5034536;28;20049;-67
2022/04/16 00:50:40;;;;;;;1.60;1.50;;;15.90;57.00;;;;;;5034599;28;20187;-65
2022/04/16 00:53:06;;;;;;;1.60;1.50;;;15.90;57.10;;;;;;5035671;28;20037;-66
2022/04/16 00:55:36;;;;;;;1.50;1.40;;;16.00;57.10;;;;;;5035655;28;20029;-66
2022/04/16 00:58:02;;;;;;;1.48;1.38;;;15.90;57.10;;;;;;5035778;28;20104;-67
2022/04/16 01:00:28;;;;;;;1.45;1.35;;;15.90;57.70;;;;;;5035733;28;20030;-66
2022/04/16 01:02:56;;;;;;;1.83;1.73;;;16.00;57.20;;;;;;5034119;28;20032;-66
2022/04/16 01:05:22;;;;;;;1.52;1.42;;;15.90;57.10;;;;;;5035924;28;20057;-66
2022/04/16 01:07:58;;;;;;;1.52;1.40;;;15.90;57.20;;;;;;5035209;28;20064;-66
2022/04/16 01:10:26;;;;;;;1.40;1.30;;;15.90;57.20;;;;;;5035314;28;20021;-67
2022/04/16 01:12:53;;;;;;;1.60;1.50;;;15.90;57.20;;;;;;5035547;28;20072;-65
2022/04/16 01:15:20;;;;;;;1.70;1.60;;;15.90;57.30;;;;;;5034225;28;20039;-65
2022/04/16 01:17:47;;;;;;;2.10;1.63;;;15.90;57.20;;;;;;5034622;28;20427;-66
2022/04/16 01:20:14;;;;;;;1.50;1.33;;;15.90;57.30;;;;;;5034763;28;20040;-66
2022/04/16 01:22:40;;;;;;;1.77;1.67;;;15.80;57.30;;;;;;5035175;28;20064;-66
2022/04/16 01:25:10;;;;;;;1.50;1.40;;;15.80;57.30;;;;;;5034922;28;20040;-66
2022/04/16 01:27:36;;;;;;;1.70;1.60;;;15.80;57.40;;;;;;5035118;28;20097;-66
2022/04/16 01:30:03;;;;;;;1.50;1.40;;;15.80;57.40;;;;;;5033909;28;20116;-66
2022/04/16 01:32:32;;;;;;;1.55;1.45;;;15.80;57.40;;;;;;5034950;28;20033;-66
2022/04/16 01:34:59;;;;;;;1.40;1.30;;;15.80;57.40;;;;;;5034714;28;20357;-66
2022/04/16 01:37:31;;;;;;;1.60;1.50;;;15.80;57.40;;;;;;5034477;28;20353;-66
2022/04/16 01:39:58;;;;;;;1.58;1.48;;;15.80;57.40;;;;;;5035068;28;20475;-66
2022/04/16 01:42:24;;;;;;;1.60;1.50;;;15.70;57.40;;;;;;5034908;28;20175;-65
2022/04/16 01:44:51;;;;;;;1.65;1.55;;;15.80;57.50;;;;;;5034850;28;20112;-65
2022/04/16 01:47:17;;;;;;;1.55;1.45;;;15.70;57.50;;;;;;5034225;28;20472;-65
2022/04/16 01:49:43;;;;;;;1.75;1.65;;;15.70;57.50;;;;;;5034620;28;20034;-65
2022/04/16 01:52:09;;;;;;;1.60;1.50;;;15.70;57.50;;;;;;5034660;28;20033;-65
2022/04/16 01:54:35;;;;;;;1.20;1.20;;;15.70;57.60;;;;;;5034605;28;20041;-64
2022/04/16 01:57:01;;;;;;;1.63;1.52;;;15.70;57.50;;;;;;5033328;28;20446;-65
2022/04/16 01:59:28;;;;;;;2.00;1.45;;;15.70;57.60;;;;;;5033122;28;20116;-65
2022/04/16 02:01:56;;;;;;;1.65;1.55;;;15.70;57.60;;;;;;5034387;28;20033;-65
2022/04/16 02:04:22;;;;;;;1.60;1.50;;;15.70;57.60;;;;;;5034340;28;20035;-65
2022/04/16 02:06:50;;;;;;;1.38;1.33;;;15.70;57.60;;;;;;5034545;28;20029;-65
2022/04/16 02:09:16;;;;;;;1.85;1.67;;;15.70;57.70;;;;;;5034364;28;20048;-65
2022/04/16 02:11:42;;;;;;;1.73;1.63;;;15.60;57.70;;;;;;5032956;28;20072;-65
2022/04/16 02:14:08;;;;;;;1.50;1.40;;;15.60;57.70;;;;;;5034208;28;20432;-64
2022/04/16 02:16:33;;;;;;;1.58;1.48;;;15.60;57.70;;;;;;5034377;28;20112;-66
2022/04/16 02:19:00;;;;;;;1.67;1.58;;;15.60;57.70;;;;;;5032905;28;20033;-66
2022/04/16 02:21:32;;;;;;;1.67;1.50;;;15.60;57.70;;;;;;5034278;28;20083;-65
2022/04/16 02:23:58;;;;;;;1.80;1.70;;;15.60;57.70;;;;;;5034232;28;20028;-66
2022/04/16 02:26:26;;;;;;;1.80;1.70;;;15.60;57.70;;;;;;5032701;28;20033;-65
2022/04/16 02:28:51;;;;;;;1.50;1.40;;;15.60;57.80;;;;;;5032810;28;20530;-65
2022/04/16 02:31:17;;;;;;;1.70;1.60;;;15.60;57.80;;;;;;5032737;28;20029;-65
2022/04/16 02:33:43;;;;;;;1.60;1.50;;;15.60;57.80;;;;;;5032973;28;20036;-64
2022/04/16 02:36:10;;;;;;;1.70;1.60;;;15.60;57.80;;;;;;5034295;28;20039;-66
2022/04/16 02:38:35;;;;;;;1.50;1.40;;;15.60;57.90;;;;;;5033999;28;20022;-65
2022/04/16 02:41:01;;;;;;;1.67;1.58;;;15.60;57.90;;;;;;5033795;28;20036;-66
2022/04/16 02:43:27;;;;;;;1.65;1.55;;;15.60;57.90;;;;;;5033697;28;20021;-66
2022/04/16 02:48:37;;;;;;;1.92;1.80;;;15.60;57.90;;;;;;5033792;28;20091;-65
2022/04/16 02:51:03;;;;;;;1.63;1.52;;;15.50;57.90;;;;;;5033640;28;20057;-65
2022/04/16 02:53:31;;;;;;;1.38;1.35;;;15.50;57.90;;;;;;5032495;28;20032;-66
2022/04/16 02:55:57;;;;;;;1.63;1.52;;;15.50;57.90;;;;;;5033027;28;20052;-66
2022/04/16 02:58:23;;;;;;;1.65;1.55;;;15.50;57.90;;;;;;5033166;28;20029;-67
2022/04/16 03:00:48;;;;;;;1.30;1.30;;;15.50;57.90;;;;;;5033967;28;20026;-66
2022/04/16 03:03:15;;;;;;;1.42;1.33;;;15.50;58.00;;;;;;5033714;28;20037;-66
2022/04/16 03:05:41;;;;;;;1.70;1.60;;;15.50;58.00;;;;;;5033126;28;20086;-66
2022/04/16 03:08:09;;;;;;;1.50;1.40;;;15.50;58.00;;;;;;5033427;28;20025;-66
2022/04/16 03:10:35;;;;;;;1.60;1.50;;;15.50;58.10;;;;;;5033347;28;20036;-66
2022/04/16 03:13:01;;;;;;;1.38;1.33;;;15.50;58.10;;;;;;5033147;28;20030;-66
2022/04/16 03:18:11;;;;;;;1.80;1.70;;;15.50;58.10;;;;;;5033299;28;20032;-64
2022/04/16 03:20:42;;;;;;;2.00;1.70;;;15.50;58.10;;;;;;5032973;28;20030;-65
2022/04/16 03:23:09;;;;;;;1.80;1.70;;;15.50;58.10;;;;;;5033472;28;20456;-64
2022/04/16 03:25:38;;;;;;;1.75;1.65;;;15.50;58.10;;;;;;5031151;28;20495;-65
2022/04/16 03:28:03;;;;;;;1.70;1.60;;;15.50;58.10;;;;;;5031800;28;20419;-65
2022/04/16 03:30:29;;;;;;;1.60;1.50;;;15.50;58.10;;;;;;5031817;28;20025;-66
2022/04/16 03:32:55;;;;;;;1.73;1.63;;;15.50;58.20;;;;;;5032906;28;20468;-65
2022/04/16 03:35:22;;;;;;;1.70;1.60;;;15.50;58.10;;;;;;5033134;28;20383;-66
2022/04/16 03:37:48;;;;;;;1.80;1.70;;;15.50;58.20;;;;;;5033034;28;20456;-66
2022/04/16 03:40:14;;;;;;;1.73;1.63;;;15.50;58.10;;;;;;5032264;28;20088;-65
2022/04/16 03:42:51;;;;;;;1.70;1.60;;;15.60;58.20;;;;;;5032890;28;20041;-64
2022/04/16 03:45:24;;;;;;;1.90;1.80;;;15.50;58.20;;;;;;5033077;28;20384;-64
2022/04/16 03:47:51;;;;;;;2.25;1.92;;;15.60;58.20;;;;;;5032907;28;20132;-64
2022/04/16 03:50:18;;;;;;;1.65;1.55;;;15.60;58.10;;;;;;5032739;28;20088;-65
2022/04/16 03:52:46;;;;;;;1.70;1.60;;;15.60;58.10;;;;;;5031539;28;20029;-65
2022/04/16 04:00:45;;;;;;;1.70;1.60;;;15.70;58.10;;;;;;5032828;28;20446;-65
2022/04/16 04:03:11;;;;;;;1.60;1.50;;;15.80;58.10;;;;;;5032759;28;20030;-65
2022/04/16 04:05:38;;;;;;;1.70;1.60;;;15.80;58.10;;;;;;5031530;28;20029;-65
2022/04/16 04:08:08;;;;;;;1.83;1.60;;;15.80;58.00;;;;;;5032869;28;20025;-65
2022/04/16 04:10:35;;;;;;;1.60;1.50;;;15.80;58.00;;;;;;5031499;28;20033;-66
2022/04/16 04:13:01;;;;;;;1.92;1.70;;;15.80;58.00;;;;;;5032549;28;20401;-66
2022/04/16 04:15:29;;;;;;;1.67;1.50;;;15.90;58.10;;;;;;5032503;28;20034;-67
2022/04/16 04:17:59;;;;;;;1.90;1.70;;;15.90;58.00;;;;;;5035697;28;20099;-66
2022/04/16 04:20:25;;;;;;;2.20;2.00;;;15.90;58.00;;;;;;5034876;28;20087;-66
2022/04/16 04:22:51;;;;;;;1.60;1.50;;;15.90;58.00;;;;;;5036455;28;20025;-66
2022/04/16 04:25:17;;;;;;;1.60;1.50;;;15.90;57.90;;;;;;5036140;28;20108;-66
2022/04/16 04:27:42;;;;;;;1.65;1.55;;;16.00;58.00;;;;;;5035459;28;20021;-66
2022/04/16 04:30:09;;;;;;;2.00;1.60;;;16.00;57.90;;;;;;5035650;28;20109;-66
2022/04/16 04:32:36;;;;;;;2.30;1.70;;;16.00;57.90;;;;;;5036222;28;20594;-66
2022/04/16 04:35:02;;;;;;;1.70;1.60;;;16.00;57.90;;;;;;5036067;28;20120;-66
2022/04/16 04:37:28;;;;;;;1.83;1.73;;;16.00;57.80;;;;;;5036065;28;20064;-66
2022/04/16 04:39:54;;;;;;;1.67;1.58;;;16.00;57.80;;;;;;5036161;28;20022;-66
2022/04/16 04:42:31;;;;;;;1.95;1.80;;;16.10;57.90;;;;;;5035928;28;20033;-66
2022/04/16 04:44:57;;;;;;;1.80;1.70;;;16.10;57.80;;;;;;5036104;28;20048;-67
2022/04/16 04:47:23;;;;;;;2.03;1.80;;;16.10;57.80;;;;;;5035732;28;20029;-66
2022/04/16 04:49:49;;;;;;;1.83;1.73;;;16.10;57.70;;;;;;5035807;28;20122;-66
2022/04/16 04:52:29;;;;;;;2.00;1.90;;;16.20;57.70;;;;;;5035721;28;20507;-66
2022/04/16 04:54:58;;;;;;;1.63;1.52;;;16.20;57.70;;;;;;5035889;28;20459;-66
2022/04/16 04:57:25;;;;;;;2.30;1.90;;;16.20;57.60;;;;;;5035684;28;20030;-66
2022/04/16 04:59:50;;;;;;;1.77;1.67;;;16.30;57.70;;;;;;5035559;28;20087;-66
2022/04/16 05:02:16;;;;;;;2.10;1.90;;;16.30;57.70;;;;;;5035538;28;20480;-66
2022/04/16 05:04:42;;;;;;;2.00;1.80;;;16.30;57.60;;;;;;5035320;28;20100;-66
2022/04/16 05:07:09;;;;;;;1.65;1.55;;;16.40;57.60;;;;;;5035680;28;20030;-66
2022/04/16 05:09:35;;;;;;;1.77;1.50;;;16.40;57.50;;;;;;5035303;28;20029;-66
2022/04/16 05:12:02;;;;;;;1.80;1.70;;;16.40;57.50;;;;;;5035175;28;20123;-66
2022/04/16 05:14:27;;;;;;;1.80;1.70;;;16.50;57.50;;;;;;5035070;28;20079;-66
2022/04/16 05:16:53;;;;;;;1.70;1.60;;;16.50;57.50;;;;;;5035146;28;20029;-66
2022/04/16 05:19:19;;;;;;;1.60;1.50;;;16.50;57.40;;;;;;5035481;28;20036;-66
2022/04/16 05:21:45;;;;;;;1.80;1.70;;;16.50;57.40;;;;;;5034996;28;20115;-67
2022/04/16 05:24:11;;;;;;;2.10;1.77;;;16.60;57.40;;;;;;5035106;28;20475;-66
2022/04/16 05:26:38;;;;;;;1.92;1.73;;;16.60;57.30;;;;;;5035220;28;20049;-67
2022/04/16 05:29:04;;;;;;;1.85;1.75;;;16.60;57.30;;;;;;5034886;28;20022;-67
2022/04/16 05:31:30;;;;;;;1.83;1.60;;;16.70;57.30;;;;;;5034819;28;20041;-67
2022/04/16 05:36:42;;;;;;;2.40;1.80;;;16.70;57.20;;;;;;5033690;28;20095;-67
2022/04/16 05:39:08;;;;;;;2.00;1.80;;;16.80;57.20;;;;;;5033312;28;20415;-66
2022/04/16 05:41:34;;;;;;;2.00;1.80;;;16.80;57.10;;;;;;5035008;28;20061;-67
2022/04/16 05:44:00;;;;;;;1.95;1.85;;;16.90;57.10;;;;;;5034128;28;20021;-67
2022/04/16 05:46:26;;;;;;;2.05;1.85;;;16.90;57.10;;;;;;5034533;28;20052;-67
2022/04/16 05:48:52;;;;;;;1.80;1.70;;;16.90;57.00;;;;;;5034877;28;20081;-66
2022/04/16 05:51:18;;;;;;;2.17;1.98;;;16.90;57.00;;;;;;5034452;28;20025;-66
2022/04/16 05:53:46;;;;;;;2.10;1.90;;;17.00;57.00;;;;;;5034329;28;20369;-67
2022/04/16 05:56:13;;;;;;;1.80;1.70;;;17.00;57.50;;;;;;5034147;28;20460;-67
2022/04/16 05:58:40;;;;;;;2.00;1.90;;;17.00;56.90;;;;;;5033786;28;20036;-68
2022/04/16 06:01:07;;;;;;;2.10;1.90;;;17.00;56.80;;;;;;5033694;28;20472;-67
2022/04/16 06:03:34;;;;;;;2.00;1.75;;;17.10;56.90;;;;;;5032454;28;20033;-67
2022/04/16 06:06:00;;;;;;;1.90;1.80;;;17.10;56.80;;;;;;5034031;28;20405;-66
2022/04/16 06:08:26;;;;;;;2.10;1.90;;;17.10;56.80;;;;;;5034007;28;20463;-67
2022/04/16 06:10:52;;;;;;;2.00;1.70;;;17.10;56.80;;;;;;5034689;28;20037;-67
2022/04/16 06:13:18;;;;;;;1.98;1.88;;;17.10;56.80;;;;;;5039644;28;20098;-66
2022/04/16 06:15:43;;;;;;;2.13;1.90;;;17.20;56.80;;;;;;5043420;28;20095;-66
2022/04/16 06:18:13;;;;;;;2.08;1.85;;;17.20;57.30;;;;;;5041573;28;20497;-66
2022/04/16 06:20:39;;;;;;;1.90;1.80;;;17.20;56.70;;;;;;5042893;28;20021;-66
2022/04/16 06:23:05;;;;;;;2.47;2.22;;;17.20;56.60;;;;;;5043324;28;20025;-67
2022/04/16 06:25:32;;;;;;;2.25;2.00;;;17.30;56.70;;;;;;5040344;28;20036;-66
2022/04/16 06:27:58;;;;;;;2.05;1.90;;;17.30;56.60;;;;;;5041878;28;20044;-66
2022/04/16 06:30:23;;;;;;;2.03;1.83;;;17.30;56.60;;;;;;5042988;28;20459;-67
2022/04/16 06:32:49;;;;;;;2.03;1.83;;;17.30;56.60;;;;;;5041337;28;20080;-67
2022/04/16 06:35:15;;;;;;;1.95;1.85;;;17.40;56.60;;;;;;5036164;28;20760;-68
2022/04/16 06:37:41;;;;;;;1.85;1.73;;;17.40;56.50;;;;;;5041776;28;20040;-67
2022/04/16 06:40:08;;;;;;;2.22;2.03;;;17.40;56.50;;;;;;5038208;28;20481;-67
2022/04/16 06:42:35;;;;;;;2.78;2.47;;;17.50;56.60;;;;;;5041603;28;20033;-70
2022/04/16 06:45:01;;;;;;;3.15;2.53;;;17.50;56.60;;;;;;5043971;28;20604;-68
2022/04/16 06:47:29;;;;;;;3.78;2.50;;;17.60;56.60;;;;;;5039907;28;20029;-68
2022/04/16 06:49:55;;;;;;;4.15;2.90;;;17.60;56.60;;;;;;5041631;28;20025;-69
2022/04/16 06:52:21;;;;;;;3.58;2.95;;;17.60;56.50;;;;;;5043391;28;20639;-68
2022/04/16 06:54:47;;;;;;;3.85;3.15;;;17.70;56.50;;;;;;5041989;28;20033;-69
2022/04/16 06:57:13;;;;;;;5.72;3.63;;;17.80;56.50;;;;;;5040851;28;20456;-67
2022/04/16 06:59:39;;;;;;;4.70;3.72;;;17.80;56.40;;;;;;5043229;28;20029;-68
2022/04/16 07:02:12;;;;;;;4.53;3.67;;;17.80;56.30;;;;;;5040333;28;20116;-67
2022/04/16 07:05:07;;;;;;;4.30;3.17;;;17.90;56.60;;;;;;5041175;28;20024;-67
2022/04/16 07:07:38;;;;;;;4.15;3.08;;;18.00;56.60;;;;;;5041097;28;21354;-67
2022/04/16 07:10:04;;;;;;;4.25;3.25;;;18.10;56.50;;;;;;5041011;28;20026;-67
2022/04/16 07:12:29;;;;;;;4.00;3.40;;;18.10;56.30;;;;;;5042272;28;20402;-68
2022/04/16 07:14:55;;;;;;;4.15;3.53;;;18.10;56.20;;;;;;5040986;28;20132;-70
2022/04/16 07:17:21;;;;;;;5.32;3.67;;;18.10;56.10;;;;;;5043034;28;20092;-68
2022/04/16 07:19:46;;;;;;;4.22;3.72;;;18.20;56.20;;;;;;5039965;28;20171;-67
2022/04/16 07:22:12;;;;;;;5.47;3.90;;;18.10;56.10;;;;;;5041565;28;20036;-68
2022/04/16 07:24:38;;;;;;;6.80;4.07;;;18.10;56.00;;;;;;5041432;28;20118;-70
2022/04/16 07:27:06;;;;;;;7.25;4.20;;;18.10;56.00;;;;;;5036177;28;20025;-66
2022/04/16 07:29:31;;;;;;;5.32;3.80;;;18.20;56.00;;;;;;5030837;28;20114;-66
2022/04/16 07:31:57;;;;;;;4.93;3.83;;;18.20;56.00;;;;;;5032722;28;20030;-65
2022/04/16 07:34:23;;;;;;;6.22;3.97;;;18.20;55.90;;;;;;5032355;28;20593;-65
2022/04/16 07:36:49;;;;;;;6.72;4.28;;;18.20;56.00;;;;;;5031483;28;20460;-65
2022/04/16 07:39:14;;;;;;;4.78;3.65;;;18.10;55.90;;;;;;5030044;28;20606;-66
2022/04/16 07:41:40;;;;;;;5.40;4.30;;;18.20;55.90;;;;;;5031182;28;20470;-65
2022/04/16 07:44:06;;;;;;;4.70;4.03;;;18.20;55.90;;;;;;5031204;28;20447;-66
2022/04/16 07:46:34;;;;;;;6.10;4.25;;;18.20;55.80;;;;;;5031348;28;20032;-65
2022/04/16 07:49:00;;;;;;;5.75;4.28;;;18.30;55.80;;;;;;5031319;28;20095;-65
2022/04/16 07:51:27;;;;;;;5.32;4.28;;;18.30;55.80;;;;;;5034038;28;20038;-65
2022/04/16 07:53:54;;;;;;;6.85;4.28;;;18.30;55.80;;;;;;5035634;28;20033;-65
2022/04/16 07:56:20;;;;;;;7.43;4.38;;;18.40;55.70;;;;;;5036697;28;20030;-65
2022/04/16 07:58:46;;;;;;;5.63;4.45;;;18.40;55.60;;;;;;5036634;28;20117;-65
2022/04/16 08:01:12;;;;;;;6.07;4.18;;;18.50;55.60;;;;;;5037119;28;20128;-65
2022/04/16 08:03:38;;;;;;;7.75;4.50;;;18.60;55.60;;;;;;5036950;28;20036;-65
2022/04/16 08:06:03;;;;;;;5.38;4.28;;;18.60;55.50;;;;;;5036650;28;20021;-64
2022/04/16 08:08:29;;;;;;;5.72;4.28;;;18.70;55.40;;;;;;5036557;28;20045;-64
2022/04/16 08:10:56;;;;;;;5.30;4.30;;;18.80;55.40;;;;;;5036500;28;20030;-64
2022/04/16 08:13:22;;;;;;;5.97;4.43;;;18.90;55.30;;;;;;5036508;28;20038;-63
2022/04/16 08:15:48;;;;;;;5.90;4.65;;;18.90;55.20;;;;;;5036704;28;20437;-66
2022/04/16 08:18:13;;;;;;;6.60;4.75;;;19.00;55.20;;;;;;5036506;28;20033;-66
2022/04/16 08:20:39;;;;;;;5.70;4.50;;;19.00;55.10;;;;;;5036731;28;20025;-65
2022/04/16 08:23:06;;;;;;;6.82;4.60;;;19.00;55.00;;;;;;5036327;28;20060;-65
2022/04/16 08:28:03;;;;;;;6.65;4.35;;;19.10;54.90;;;;;;5036433;28;20486;-66
2022/04/16 08:30:29;;;;;;;6.85;4.40;;;19.10;54.90;;;;;;5035090;28;20029;-66
2022/04/16 08:32:55;;;;;;;6.25;4.88;;;19.10;54.90;;;;;;5036422;28;20053;-65
2022/04/16 08:35:21;;;;;;;5.80;4.30;;;19.10;54.80;;;;;;5034761;28;20033;-66
2022/04/16 08:37:49;;;;;;;6.30;4.53;;;19.10;54.80;;;;;;5036373;28;20028;-65
2022/04/16 08:40:16;;;;;;;4.75;4.05;;;19.10;54.80;;;;;;5036505;28;20038;-66
2022/04/16 08:42:45;;;;;;;6.25;4.50;;;19.20;54.80;;;;;;5036140;28;20037;-64
2022/04/16 08:45:12;;;;;;;5.70;4.45;;;19.20;54.70;;;;;;5036475;28;20021;-65
2022/04/16 08:47:39;;;;;;;6.30;4.40;;;19.20;54.60;;;;;;5035982;28;20479;-65
2022/04/16 08:50:08;;;;;;;6.25;4.68;;;19.30;54.60;;;;;;5036116;28;20391;-65
2022/04/16 08:52:36;;;;;;;5.82;4.40;;;19.30;54.60;;;;;;5035622;28;20029;-64
2022/04/16 08:55:05;;;;;;;5.53;4.45;;;19.30;54.50;;;;;;5035960;28;20543;-65
2022/04/16 08:57:30;;;;;;;5.30;4.55;;;19.30;54.50;;;;;;5035919;28;20025;-64
2022/04/16 08:59:57;;;;;;;5.40;4.43;;;19.40;54.50;;;;;;5035759;28;20418;-64
2022/04/16 09:02:24;;;;;;;4.97;4.25;;;19.40;54.40;;;;;;5034992;28;20456;-64
2022/04/16 09:05:10;;;;;;;6.75;4.50;;;19.40;54.30;;;;;;5035807;28;20033;-65
2022/04/16 09:07:48;;;;;;;5.25;4.40;;;19.50;54.40;;;;;;5035927;28;20037;-65
2022/04/16 09:10:15;;;;;;;5.70;4.80;;;19.50;54.20;;;;;;5035655;28;20025;-65
2022/04/16 09:12:41;;;;;;;5.70;4.45;;;19.50;54.10;;;;;;5034345;28;20124;-65
2022/04/16 09:15:12;;;;;;;5.90;4.30;;;19.50;54.00;;;;;;5034131;28;20037;-64
2022/04/16 09:17:39;;;;;;;6.47;4.70;;;19.50;54.00;;;;;;5035188;28;20033;-65
2022/04/16 09:20:12;;;;;;;5.50;4.18;;;19.50;54.00;;;;;;5035272;28;20052;-64
2022/04/16 09:22:39;;;;;;;5.88;4.28;;;19.50;54.00;;;;;;5034200;28;20033;-65
2022/04/16 09:25:16;;;;;;;6.15;4.40;;;19.40;54.00;;;;;;5035183;28;20053;-65
2022/04/16 09:27:46;;;;;;;6.13;4.40;;;19.40;54.00;;;;;;5035157;28;20036;-65
2022/04/16 09:30:13;;;;;;;7.05;4.20;;;19.40;53.90;;;;;;5033345;28;20464;-64
2022/04/16 09:32:44;;;;;;;6.40;4.40;;;19.40;53.90;;;;;;5035348;28;20025;-66
2022/04/16 09:35:30;;;;;;;5.47;4.03;;;19.30;53.90;;;;;;5033674;28;20033;-65
2022/04/16 09:37:56;;;;;;;5.68;3.97;;;19.30;54.00;;;;;;5033854;28;20037;-65
2022/04/16 09:40:30;;;;;;;6.35;4.45;;;19.30;54.00;;;;;;5033357;28;20056;-65
2022/04/16 09:43:01;;;;;;;6.20;4.35;;;19.30;54.00;;;;;;5035455;28;20052;-65
2022/04/16 09:45:30;;;;;;;4.82;4.00;;;19.30;54.00;;;;;;5035201;28;20113;-66
2022/04/16 09:47:57;;;;;;;5.20;4.00;;;19.30;54.00;;;;;;5034822;28;20057;-64
2022/04/16 09:50:24;;;;;;;6.13;4.22;;;19.30;54.00;;;;;;5034866;28;20029;-65
2022/04/16 09:52:58;;;;;;;5.45;4.22;;;19.20;53.90;;;;;;5034248;28;20033;-65
2022/04/16 09:55:25;;;;;;;6.93;4.27;;;19.20;54.00;;;;;;5034448;28;20479;-65
2022/04/16 09:57:52;;;;;;;4.95;4.05;;;19.20;53.90;;;;;;5035213;28;20033;-64
2022/04/16 10:00:18;;;;;;;5.40;4.47;;;19.20;54.00;;;;;;5033279;28;20025;-64
2022/04/16 10:02:45;;;;;;;5.82;4.35;;;19.10;54.00;;;;;;5034856;28;20033;-65
2022/04/16 10:05:11;;;;;;;5.85;4.70;;;19.00;54.00;;;;;;5034872;28;20036;-65
2022/04/16 10:07:37;;;;;;;5.43;4.32;;;19.00;54.20;;;;;;5034322;28;20033;-67
2022/04/16 10:10:17;;;;;;;6.32;4.20;;;18.90;54.30;;;;;;5034762;28;20474;-65
2022/04/16 10:12:59;;;;;;;6.10;4.30;;;18.80;54.30;;;;;;5018639;28;20033;-65
2022/04/16 10:15:47;;;;;;;5.85;4.60;;;18.80;54.50;;;;;;5033319;28;20033;-65
2022/04/16 10:18:13;;;;;;;6.65;4.63;;;18.70;54.60;;;;;;5032872;28;20037;-64
2022/04/16 10:20:53;;;;;;;5.95;4.25;;;18.70;54.80;;;;;;5034553;28;20029;-65
2022/04/16 10:23:37;;;;;;;5.45;4.43;;;18.70;54.90;;;;;;5034047;28;20083;-65
2022/04/16 10:26:09;;;;;;;6.13;4.93;;;18.60;54.90;;;;;;5034354;28;20025;-64
2022/04/16 10:28:52;;;;;;;6.38;4.82;;;18.60;55.00;;;;;;5032837;28;20132;-65
2022/04/16 10:31:29;;;;;;;5.88;4.50;;;18.60;55.10;;;;;;5033315;28;20032;-65
2022/04/16 10:34:01;;;;;;;5.57;4.63;;;18.60;55.10;;;;;;5034019;28;20403;-65
2022/04/16 10:36:32;;;;;;;6.82;4.82;;;18.50;55.20;;;;;;5033907;28;20022;-64
2022/04/16 10:39:00;;;;;;;5.72;4.68;;;18.50;55.30;;;;;;5032462;28;20029;-65
2022/04/16 10:41:27;;;;;;;5.53;4.32;;;18.40;55.40;;;;;;5033977;28;20091;-65
2022/04/16 10:44:01;;;;;;;5.32;4.43;;;18.40;55.60;;;;;;5033936;28;20131;-66
2022/04/16 10:46:46;;;;;;;6.40;4.88;;;18.40;55.60;;;;;;5033260;28;20032;-64
2022/04/16 10:49:13;;;;;;;5.97;4.70;;;18.30;55.70;;;;;;5034122;28;20045;-66
2022/04/16 10:51:39;;;;;;;6.10;4.80;;;18.30;55.60;;;;;;5034122;28;20030;-66
2022/04/16 10:54:15;;;;;;;5.68;4.53;;;18.20;55.80;;;;;;5033907;28;20036;-65
2022/04/16 10:56:54;;;;;;;6.57;5.13;;;18.20;55.90;;;;;;5034089;28;20529;-64
2022/04/16 10:59:38;;;;;;;7.00;5.00;;;18.10;56.00;;;;;;5033957;28;20155;-64
2022/04/16 11:02:26;;;;;;;5.75;4.75;;;18.00;56.10;;;;;;5032355;28;20036;-65
2022/04/16 11:05:05;;;;;;;7.38;4.75;;;18.00;56.30;;;;;;5034159;28;20030;-65
2022/04/16 11:07:35;;;;;;;6.32;4.95;;;17.90;56.30;;;;;;5033892;28;20036;-65
2022/04/16 11:10:01;;;;;;;5.55;4.35;;;17.90;56.50;;;;;;5033788;28;20028;-65
2022/04/16 11:12:29;;;;;;;5.53;4.40;;;17.80;56.60;;;;;;5033602;28;20025;-64
2022/04/16 11:14:55;;;;;;;6.68;4.68;;;17.70;56.70;;;;;;5032813;28;20067;-65
2022/04/16 11:17:21;;;;;;;6.05;4.70;;;17.70;56.90;;;;;;5033717;28;20083;-65
2022/04/16 11:20:00;;;;;;;5.90;4.72;;;17.70;57.00;;;;;;5033426;28;20410;-64
2022/04/16 11:22:26;;;;;;;6.63;4.70;;;17.60;57.20;;;;;;5032353;28;20357;-65
2022/04/16 11:24:52;;;;;;;6.07;4.90;;;17.60;57.30;;;;;;5033188;28;20040;-65
2022/04/16 11:36:02;;;;;;;5.15;4.15;;;17.40;57.70;;;;;;5033494;28;20127;-65
2022/04/16 11:38:30;;;;;;;4.97;4.10;;;17.40;57.80;;;;;;5032247;28;20115;-64
2022/04/16 11:40:57;;;;;;;5.70;4.75;;;17.30;57.90;;;;;;5033393;28;20033;-64
2022/04/16 11:43:25;;;;;;;6.07;4.45;;;17.30;58.10;;;;;;5033083;28;20537;-65
2022/04/16 11:45:52;;;;;;;6.78;5.18;;;17.30;58.20;;;;;;5033351;28;20025;-64
2022/04/16 11:48:18;;;;;;;5.78;4.32;;;17.30;58.30;;;;;;5031675;28;20049;-65
2022/04/16 11:50:44;;;;;;;5.88;4.43;;;17.30;58.30;;;;;;5033583;28;20018;-64
2022/04/16 11:53:13;;;;;;;6.32;4.82;;;17.30;58.40;;;;;;5032030;28;20029;-64
2022/04/16 11:55:46;;;;;;;6.15;4.65;;;17.30;58.50;;;;;;5032963;28;20025;-64
2022/04/16 11:58:12;;;;;;;6.45;4.82;;;17.30;58.70;;;;;;5033145;28;20030;-65
2022/04/16 12:00:48;;;;;;;6.28;5.03;;;17.20;58.70;;;;;;5033085;28;20095;-64
2022/04/16 12:03:14;;;;;;;6.68;5.03;;;17.20;58.90;;;;;;5031905;28;20034;-65
2022/04/16 12:05:42;;;;;;;6.97;4.90;;;17.20;59.50;;;;;;5031715;28;20042;-66
2022/04/16 12:08:10;;;;;;;9.10;5.80;;;17.20;59.00;;;;;;5033297;28;20033;-64
2022/04/16 12:10:37;;;;;;;7.15;5.30;;;17.20;59.10;;;;;;5033031;28;20459;-64
2022/04/16 12:13:10;;;;;;;7.05;5.30;;;17.20;59.20;;;;;;5032974;28;20045;-65
2022/04/16 12:15:41;;;;;;;8.27;5.95;;;17.20;59.30;;;;;;5033058;28;20044;-64
2022/04/16 12:18:22;;;;;;;8.55;5.68;;;17.10;59.30;;;;;;5032813;28;20101;-65
2022/04/16 12:20:48;;;;;;;6.57;5.50;;;17.10;59.50;;;;;;5032683;28;20022;-65
2022/04/16 12:23:23;;;;;;;6.63;5.15;;;17.00;60.10;;;;;;5033007;28;20033;-65
2022/04/16 12:25:50;;;;;;;6.40;5.13;;;17.00;59.70;;;;;;5015728;28;20029;-64
2022/04/16 12:28:16;;;;;;;6.82;5.30;;;17.00;59.70;;;;;;5032922;28;20112;-64
2022/04/16 12:30:51;;;;;;;6.80;5.15;;;17.00;59.80;;;;;;5032452;28;20043;-64
2022/04/16 12:33:17;;;;;;;7.25;5.40;;;17.00;60.00;;;;;;5032426;28;20406;-64
2022/04/16 12:35:47;;;;;;;7.35;5.57;;;16.90;60.00;;;;;;5032588;28;20041;-64
2022/04/16 12:38:17;;;;;;;7.20;5.50;;;16.90;60.10;;;;;;5034369;28;20026;-64
2022/04/16 12:40:44;;;;;;;6.13;5.32;;;16.90;60.10;;;;;;5036121;28;20030;-64
2022/04/16 12:43:10;;;;;;;7.97;5.25;;;16.90;60.20;;;;;;5034775;28;20100;-64
2022/04/16 12:45:35;;;;;;;6.95;5.57;;;16.90;60.30;;;;;;5034882;28;20106;-65
2022/04/16 12:48:01;;;;;;;6.60;5.22;;;16.90;60.30;;;;;;5035366;28;20570;-65
2022/04/16 12:50:31;;;;;;;6.57;5.57;;;16.80;60.30;;;;;;5034958;28;20112;-65
2022/04/16 12:52:59;;;;;;;6.93;5.47;;;16.80;60.40;;;;;;5035482;28;20029;-64
2022/04/16 12:55:25;;;;;;;7.25;5.57;;;16.80;60.50;;;;;;5035928;28;20049;-64
2022/04/16 12:57:51;;;;;;;6.95;5.55;;;16.70;60.60;;;;;;5035653;28;20028;-64
2022/04/16 13:00:17;;;;;;;6.43;5.30;;;16.80;60.70;;;;;;5035905;28;20108;-64
2022/04/16 13:02:45;;;;;;;7.80;5.80;;;16.80;60.80;;;;;;5035531;28;20029;-64
2022/04/16 13:05:12;;;;;;;6.55;5.68;;;16.70;60.80;;;;;;5036036;28;20030;-64
2022/04/16 13:07:39;;;;;;;6.78;5.22;;;16.70;60.80;;;;;;5035700;28;20029;-64
2022/04/16 13:10:06;;;;;;;6.18;5.38;;;16.80;60.90;;;;;;5035448;28;20505;-64
2022/04/16 13:12:33;;;;;;;6.78;5.60;;;16.70;60.90;;;;;;5035384;28;20065;-64
2022/04/16 13:14:59;;;;;;;6.03;5.03;;;16.70;60.90;;;;;;5035566;28;20033;-64
2022/04/16 13:17:25;;;;;;;7.28;5.03;;;16.70;61.50;;;;;;5035332;28;20035;-64